Time;durP1;ratioP1;P1;durP2;ratioP2;P2;SDS_P1;SDS_P2;PMS_P1;PMS_P2;Temp;Humidity;BMP_temperature;BMP_pressure;BME280_temperature;BME280_humidity;BME280_pressure;Samples;Min_cycle;Max_cycle;Signal;HPM_P1;HPM_P2
2022/01/09 00:01:22;;;;;;;3.30;1.43;;;;;;;;;;10447284;28;20105;-72
2022/01/09 00:06:25;;;;;;;2.80;1.50;;;;;;;;;;10446363;28;20582;-72
2022/01/09 00:11:30;;;;;;;1.83;0.97;;;;;;;;;;10439810;28;20071;-73
2022/01/09 00:16:33;;;;;;;;;;;;;;;;;;10434343;28;20307;-72
2022/01/09 00:21:39;;;;;;;3.03;1.20;;;;;;;;;;10437166;28;19927;-73
2022/01/09 00:26:44;;;;;;;2.58;1.30;;;;;;;;;;10444189;28;20171;-73
2022/01/09 00:31:47;;;;;;;3.83;2.03;;;;;;;;;;10441551;28;20127;-74
2022/01/09 00:36:50;;;;;;;2.00;0.80;;;;;;;;;;10437765;28;20147;-72
2022/01/09 00:41:55;;;;;;;0.57;0.50;;;;;;;;;;10439358;28;20070;-74
2022/01/09 00:47:00;;;;;;;0.50;0.50;;;;;;;;;;10433037;28;20048;-73
2022/01/09 00:52:03;;;;;;;1.97;1.03;;;;;;;;;;10439113;28;20044;-71
2022/01/09 00:57:08;;;;;;;2.47;1.30;;;;;;;;;;10438217;28;20070;-72
2022/01/09 01:02:11;;;;;;;1.30;0.80;;;;;;;;;;10439076;28;20036;-71
2022/01/09 01:07:14;;;;;;;3.20;1.30;;;;;;;;;;10453303;28;20037;-73
2022/01/09 01:12:19;;;;;;;1.80;0.60;;;;;;;;;;10439735;28;20049;-72
2022/01/09 01:17:22;;;;;;;2.50;1.07;;;;;;;;;;10429779;28;20041;-72
2022/01/09 01:22:27;;;;;;;3.42;1.40;;;;;;;;;;10437265;28;20056;-73
2022/01/09 01:27:31;;;;;;;3.10;0.77;;;;;;;;;;10439262;28;20029;-73
2022/01/09 01:32:34;;;;;;;4.07;1.53;;;;;;;;;;10436237;28;20036;-74
2022/01/09 01:37:41;;;;;;;4.00;1.02;;;;;;;;;;10436251;28;20045;-74
2022/01/09 01:42:46;;;;;;;0.77;0.73;;;;;;;;;;10435827;28;20075;-72
2022/01/09 01:47:49;;;;;;;1.77;1.37;;;;;;;;;;10436849;28;20400;-74
2022/01/09 01:52:54;;;;;;;2.50;1.30;;;;;;;;;;10435221;28;20094;-74
2022/01/09 01:57:59;;;;;;;1.67;0.80;;;;;;;;;;10433854;28;20065;-73
2022/01/09 02:03:03;;;;;;;1.23;0.37;;;;;;;;;;10439693;28;20029;-74
2022/01/09 02:08:06;;;;;;;0.60;0.38;;;;;;;;;;10450943;28;20036;-73
2022/01/09 02:13:10;;;;;;;2.20;0.50;;;;;;;;;;10455663;28;20128;-74
2022/01/09 02:18:22;;;;;;;2.63;0.60;;;;;;;;;;10444741;28;20083;-71
2022/01/09 02:23:27;;;;;;;1.40;1.08;;;;;;;;;;10442237;28;20447;-73
2022/01/09 02:28:41;;;;;;;5.93;1.20;;;;;;;;;;10442100;28;20125;-72
2022/01/09 02:33:45;;;;;;;1.20;0.85;;;;;;;;;;10440233;28;20040;-72
2022/01/09 02:38:49;;;;;;;0.83;0.50;;;;;;;;;;10434930;28;20041;-73
2022/01/09 02:43:54;;;;;;;0.87;0.67;;;;;;;;;;10435853;28;20036;-74
2022/01/09 02:48:58;;;;;;;1.00;0.70;;;;;;;;;;10433600;28;20037;-73
2022/01/09 02:55:05;;;;;;;1.10;0.60;;;;;;;;;;10437121;28;20029;-73
2022/01/09 02:59:27;;;;;;;0.87;0.30;;;;;;;;;;10430625;28;20041;-75
2022/01/09 03:04:30;;;;;;;0.93;0.43;;;;;;;;;;10430066;28;20083;-73
2022/01/09 03:09:34;;;;;;;0.60;0.60;;;;;;;;;;10435253;28;20033;-73
2022/01/09 03:14:37;;;;;;;0.40;0.40;;;;;;;;;;10428533;28;20033;-73
2022/01/09 03:19:41;;;;;;;1.00;0.20;;;;;;;;;;10431304;28;20037;-73
2022/01/09 03:24:46;;;;;;;0.70;0.40;;;;;;;;;;10428304;28;20128;-74
2022/01/09 03:29:49;;;;;;;0.73;0.50;;;;;;;;;;10426269;28;20136;-73
2022/01/09 03:34:52;;;;;;;0.40;0.40;;;;;;;;;;10433674;28;20068;-73
2022/01/09 03:39:57;;;;;;;0.23;0.20;;;;;;;;;;10429500;28;20045;-74
2022/01/09 03:45:00;;;;;;;0.40;0.30;;;;;;;;;;10428295;28;20399;-73
2022/01/09 03:50:04;;;;;;;0.10;0.10;;;;;;;;;;10429130;28;20068;-75
2022/01/09 03:55:10;;;;;;;0.43;0.30;;;;;;;;;;10429591;28;20311;-75
2022/01/09 04:00:15;;;;;;;0.30;0.30;;;;;;;;;;10436396;28;20436;-75
2022/01/09 04:05:18;;;;;;;0.67;0.43;;;;;;;;;;10454999;28;20041;-73
2022/01/09 04:10:28;;;;;;;0.65;0.40;;;;;;;;;;10430021;28;20045;-73
2022/01/09 04:15:31;;;;;;;2.63;0.63;;;;;;;;;;10434308;28;20065;-72
2022/01/09 04:20:34;;;;;;;1.65;0.85;;;;;;;;;;10454984;28;20095;-72
2022/01/09 04:25:39;;;;;;;1.50;0.73;;;;;;;;;;10452511;28;20037;-72
2022/01/09 04:30:43;;;;;;;1.20;0.73;;;;;;;;;;10432509;28;20071;-70
2022/01/09 04:35:47;;;;;;;0.50;0.22;;;;;;;;;;10428004;28;20059;-74
2022/01/09 04:40:51;;;;;;;1.40;0.57;;;;;;;;;;10455377;22;20386;-76
2022/01/09 04:45:54;;;;;;;0.97;0.50;;;;;;;;;;10439040;28;20041;-77
2022/01/09 04:50:58;;;;;;;0.60;0.43;;;;;;;;;;10448084;28;20033;-78
2022/01/09 04:56:03;;;;;;;13.38;2.72;;;;;;;;;;10460622;28;20049;-76
2022/01/09 05:01:06;;;;;;;8.27;2.03;;;;;;;;;;10455456;28;20223;-76
2022/01/09 05:06:09;;;;;;;10.63;2.40;;;;;;;;;;10476102;28;20211;-77
2022/01/09 05:11:13;;;;;;;4.37;0.80;;;;;;;;;;10454768;28;20033;-77
2022/01/09 05:16:17;;;;;;;6.90;2.17;;;;;;;;;;10455262;28;20037;-77
2022/01/09 05:21:20;;;;;;;4.83;1.43;;;;;;;;;;10456100;28;20047;-78
2022/01/09 05:26:25;;;;;;;20.10;3.43;;;;;;;;;;10451449;28;20055;-77
2022/01/09 05:31:28;;;;;;;0.50;0.20;;;;;;;;;;10445478;28;20055;-78
2022/01/09 05:36:31;;;;;;;3.53;0.67;;;;;;;;;;10442827;28;20072;-78
2022/01/09 05:41:35;;;;;;;3.73;1.17;;;;;;;;;;10442748;28;20060;-77
2022/01/09 05:46:38;;;;;;;1.10;0.53;;;;;;;;;;10441218;28;20119;-78
2022/01/09 05:51:41;;;;;;;3.20;0.73;;;;;;;;;;10448135;28;20037;-78
2022/01/09 05:56:45;;;;;;;2.37;0.30;;;;;;;;;;10445731;28;20052;-78
2022/01/09 06:01:49;;;;;;;1.50;0.67;;;;;;;;;;10437484;28;20038;-78
2022/01/09 06:06:52;;;;;;;0.47;0.30;;;;;;;;;;10440862;28;20044;-77
2022/01/09 06:11:56;;;;;;;0.20;0.10;;;;;;;;;;10442102;28;20052;-77
2022/01/09 06:16:59;;;;;;;;;;;;;;;;;;10440374;28;20291;-76
2022/01/09 06:22:03;;;;;;;0.30;0.20;;;;;;;;;;10442811;28;19928;-78
2022/01/09 06:27:07;;;;;;;0.13;0.13;;;;;;;;;;10443956;28;20045;-76
2022/01/09 06:32:11;;;;;;;0.47;0.20;;;;;;;;;;10437776;28;20087;-76
2022/01/09 06:37:15;;;;;;;0.20;0.20;;;;;;;;;;10443341;28;20083;-75
2022/01/09 06:42:19;;;;;;;0.13;0.13;;;;;;;;;;10443740;28;20044;-77
2022/01/09 06:47:22;;;;;;;0.00;0.00;;;;;;;;;;10448715;28;20105;-78
2022/01/09 06:52:26;;;;;;;0.00;0.00;;;;;;;;;;10449478;28;20364;-78
2022/01/09 06:57:30;;;;;;;0.10;0.10;;;;;;;;;;10450890;28;20312;-78
2022/01/09 07:02:33;;;;;;;0.10;0.00;;;;;;;;;;10451837;28;20041;-79
2022/01/09 07:07:36;;;;;;;0.40;0.20;;;;;;;;;;10444890;28;20261;-78
2022/01/09 07:12:41;;;;;;;0.00;0.00;;;;;;;;;;10434318;28;20091;-79
2022/01/09 07:17:44;;;;;;;1.03;0.07;;;;;;;;;;10442841;28;20145;-77
2022/01/09 07:22:48;;;;;;;0.10;0.10;;;;;;;;;;10440612;28;20128;-77
2022/01/09 07:27:52;;;;;;;0.20;0.10;;;;;;;;;;10442198;28;20072;-77
2022/01/09 07:32:56;;;;;;;0.00;0.00;;;;;;;;;;10438387;28;20053;-77
2022/01/09 07:38:01;;;;;;;0.07;0.00;;;;;;;;;;10441718;28;20579;-78
2022/01/09 07:43:05;;;;;;;0.10;0.10;;;;;;;;;;10446297;28;20037;-77
2022/01/09 07:48:08;;;;;;;;;;;;;;;;;;10441364;28;20078;-78
2022/01/09 07:53:12;;;;;;;0.30;0.00;;;;;;;;;;10437102;28;19932;-78
2022/01/09 07:58:16;;;;;;;0.10;0.08;;;;;;;;;;10432334;28;20060;-78
2022/01/09 08:03:20;;;;;;;0.00;0.00;;;;;;;;;;10434201;28;20033;-78
2022/01/09 08:08:24;;;;;;;0.20;0.20;;;;;;;;;;10440029;28;20033;-78
2022/01/09 08:13:28;;;;;;;0.30;0.10;;;;;;;;;;10444034;28;20037;-77
2022/01/09 08:18:31;;;;;;;0.20;0.20;;;;;;;;;;10438342;28;20140;-78
2022/01/09 08:23:36;;;;;;;1.37;0.20;;;;;;;;;;10448369;28;20063;-78
2022/01/09 08:28:44;;;;;;;0.53;0.30;;;;;;;;;;10455661;28;20304;-79
2022/01/09 08:33:49;;;;;;;0.77;0.40;;;;;;;;;;10470002;28;20468;-77
2022/01/09 08:38:52;;;;;;;0.10;0.10;;;;;;;;;;10442347;28;20291;-77
2022/01/09 08:43:57;;;;;;;0.75;0.50;;;;;;;;;;10448393;28;20094;-76
2022/01/09 08:49:01;;;;;;;0.53;0.10;;;;;;;;;;10445068;28;20075;-78
2022/01/09 08:54:04;;;;;;;1.17;0.20;;;;;;;;;;10448695;28;20072;-78
2022/01/09 08:59:08;;;;;;;0.80;0.40;;;;;;;;;;10443316;28;20045;-79
2022/01/09 09:04:19;;;;;;;0.37;0.37;;;;;;;;;;10462894;28;20041;-77
2022/01/09 09:09:22;;;;;;;1.37;0.40;;;;;;;;;;10456695;28;20041;-78
2022/01/09 09:14:27;;;;;;;0.70;0.30;;;;;;;;;;10463615;28;20044;-78
2022/01/09 09:19:30;;;;;;;;;;;;;;;;;;10462313;28;20052;-77
2022/01/09 09:24:33;;;;;;;0.33;0.30;;;;;;;;;;10457268;28;20041;-77
2022/01/09 09:29:38;;;;;;;0.50;0.40;;;;;;;;;;10455824;28;20041;-78
2022/01/09 09:34:41;;;;;;;;;;;;;;;;;;10447669;28;20029;-78
2022/01/09 09:39:44;;;;;;;0.27;0.27;;;;;;;;;;10450611;28;19921;-77
2022/01/09 09:44:49;;;;;;;2.03;0.40;;;;;;;;;;10448478;28;20033;-77
2022/01/09 09:49:52;;;;;;;1.10;0.30;;;;;;;;;;10455707;28;20718;-78
2022/01/09 09:54:55;;;;;;;0.20;0.20;;;;;;;;;;10452907;28;20807;-77
2022/01/09 10:00:01;;;;;;;0.70;0.50;;;;;;;;;;10446572;28;20418;-77
2022/01/09 10:05:06;;;;;;;0.30;0.20;;;;;;;;;;10465812;28;20033;-77
2022/01/09 10:10:10;;;;;;;0.67;0.30;;;;;;;;;;10461967;28;20135;-76
2022/01/09 10:15:16;;;;;;;0.52;0.28;;;;;;;;;;10447129;28;20029;-79
2022/01/09 10:20:20;;;;;;;1.43;0.30;;;;;;;;;;10451289;28;20101;-77
2022/01/09 10:25:30;;;;;;;0.20;0.20;;;;;;;;;;10447670;28;20124;-79
2022/01/09 10:30:35;;;;;;;0.70;0.50;;;;;;;;;;10447487;28;20083;-76
2022/01/09 10:35:39;;;;;;;0.20;0.13;;;;;;;;;;10448232;28;20033;-76
2022/01/09 10:40:44;;;;;;;0.77;0.23;;;;;;;;;;10471872;22;20045;-70
2022/01/09 10:45:50;;;;;;;0.85;0.30;;;;;;;;;;10447026;28;20033;-71
2022/01/09 10:50:54;;;;;;;0.40;0.40;;;;;;;;;;10465206;28;20282;-69
2022/01/09 10:56:02;;;;;;;0.10;0.10;;;;;;;;;;10447769;28;20120;-70
2022/01/09 11:01:11;;;;;;;0.40;0.30;;;;;;;;;;10467991;28;20048;-71
2022/01/09 11:06:14;;;;;;;1.00;0.60;;;;;;;;;;10466284;28;20325;-70
2022/01/09 11:11:31;;;;;;;0.40;0.30;;;;;;;;;;10448613;28;20082;-69
2022/01/09 11:16:40;;;;;;;2.17;0.82;;;;;;;;;;10445899;28;20132;-71
2022/01/09 11:21:44;;;;;;;0.25;0.25;;;;;;;;;;10466119;28;20488;-69
2022/01/09 11:26:50;;;;;;;1.10;0.30;;;;;;;;;;10447454;28;20025;-69
2022/01/09 11:31:57;;;;;;;1.67;0.60;;;;;;;;;;10465573;28;20119;-69
2022/01/09 11:37:07;;;;;;;1.05;0.68;;;;;;;;;;10439421;28;20150;-69
2022/01/09 11:42:11;;;;;;;0.43;0.30;;;;;;;;;;10441553;28;20200;-72
2022/01/09 11:47:19;;;;;;;2.03;0.80;;;;;;;;;;10448370;28;20111;-68
2022/01/09 11:52:22;;;;;;;0.35;0.25;;;;;;;;;;10466458;28;20048;-70
2022/01/09 11:57:35;;;;;;;0.38;0.38;;;;;;;;;;10464302;28;20119;-70
2022/01/09 12:02:39;;;;;;;3.40;0.90;;;;;;;;;;10472109;28;20044;-70
2022/01/09 12:08:05;;;;;;;2.90;0.53;;;;;;;;;;10472067;28;20033;-70
2022/01/09 12:13:26;;;;;;;1.53;0.53;;;;;;;;;;10451812;28;20043;-70
2022/01/09 12:18:43;;;;;;;0.17;0.17;;;;;;;;;;10469307;28;20033;-70
2022/01/09 12:23:46;;;;;;;0.97;0.80;;;;;;;;;;10471813;28;20037;-70
2022/01/09 12:28:51;;;;;;;0.43;0.27;;;;;;;;;;10452797;28;20416;-70
2022/01/09 12:33:58;;;;;;;2.88;1.00;;;;;;;;;;10464600;28;20316;-70
2022/01/09 12:39:05;;;;;;;3.30;1.23;;;;;;;;;;10468617;28;20037;-69
2022/01/09 12:44:09;;;;;;;1.52;0.73;;;;;;;;;;10453987;28;20120;-70
2022/01/09 12:49:16;;;;;;;1.17;1.10;;;;;;;;;;10471401;28;20039;-68
2022/01/09 12:54:22;;;;;;;1.38;1.10;;;;;;;;;;10469522;28;20049;-69
2022/01/09 12:59:29;;;;;;;0.68;0.68;;;;;;;;;;10446974;28;20045;-70
2022/01/09 13:04:34;;;;;;;1.17;0.47;;;;;;;;;;10464312;28;20033;-70
2022/01/09 13:09:37;;;;;;;1.10;0.68;;;;;;;;;;10472104;28;20041;-70
2022/01/09 13:14:44;;;;;;;1.25;0.60;;;;;;;;;;10452426;28;20036;-70
2022/01/09 13:19:50;;;;;;;1.83;0.68;;;;;;;;;;10463481;28;20033;-69
2022/01/09 13:25:04;;;;;;;4.00;1.17;;;;;;;;;;10467794;28;20193;-68
2022/01/09 13:30:08;;;;;;;1.80;0.43;;;;;;;;;;10444259;28;20075;-71
2022/01/09 13:35:12;;;;;;;0.43;0.40;;;;;;;;;;10466750;28;20105;-71
2022/01/09 13:40:19;;;;;;;2.72;0.50;;;;;;;;;;10455756;28;20102;-69
2022/01/09 13:45:22;;;;;;;2.45;0.57;;;;;;;;;;10466677;28;20164;-69
2022/01/09 13:50:29;;;;;;;0.73;0.50;;;;;;;;;;10469391;28;20480;-71
2022/01/09 13:55:34;;;;;;;4.13;1.20;;;;;;;;;;10470608;28;20478;-70
2022/01/09 14:00:38;;;;;;;2.97;0.47;;;;;;;;;;10465935;28;20100;-70
2022/01/09 14:05:44;;;;;;;1.98;0.43;;;;;;;;;;10452195;28;20096;-70
2022/01/09 14:10:48;;;;;;;2.58;0.35;;;;;;;;;;10456014;28;20107;-70
2022/01/09 14:15:52;;;;;;;5.43;0.90;;;;;;;;;;10449579;28;20037;-70
2022/01/09 14:20:55;;;;;;;;;;;;;;;;;;10468347;28;20520;-67
2022/01/09 14:26:05;;;;;;;3.97;0.90;;;;;;;;;;10468436;28;19921;-71
2022/01/09 14:31:09;;;;;;;4.13;0.77;;;;;;;;;;10447316;28;20136;-69
2022/01/09 14:36:14;;;;;;;1.77;0.67;;;;;;;;;;10466700;28;20036;-69
2022/01/09 14:41:19;;;;;;;3.73;0.60;;;;;;;;;;10464907;28;20464;-69
2022/01/09 14:46:22;;;;;;;4.73;0.80;;;;;;;;;;10462403;28;20124;-70
2022/01/09 14:51:25;;;;;;;1.87;0.60;;;;;;;;;;10464342;28;20041;-70
2022/01/09 14:56:29;;;;;;;3.40;0.87;;;;;;;;;;10463353;28;20036;-70
2022/01/09 15:01:32;;;;;;;4.20;0.70;;;;;;;;;;10467597;28;20131;-70
2022/01/09 15:06:37;;;;;;;4.20;0.70;;;;;;;;;;10466323;28;20313;-69
2022/01/09 15:11:41;;;;;;;1.33;0.40;;;;;;;;;;10447574;28;20094;-70
2022/01/09 15:16:43;;;;;;;;;;;;;;;;;;10464971;28;20035;-70
2022/01/09 15:21:46;;;;;;;1.70;0.30;;;;;;;;;;10443480;28;19924;-68
2022/01/09 15:26:53;;;;;;;1.13;0.30;;;;;;;;;;10454325;28;20066;-70
2022/01/09 15:31:57;;;;;;;2.20;1.30;;;;;;;;;;10448329;28;20440;-70
2022/01/09 15:37:02;;;;;;;5.50;0.70;;;;;;;;;;10470232;28;20048;-68
2022/01/09 15:42:06;;;;;;;0.40;0.40;;;;;;;;;;10466188;28;20107;-70
2022/01/09 15:47:10;;;;;;;0.50;0.30;;;;;;;;;;10459753;28;20128;-69
2022/01/09 15:52:13;;;;;;;3.13;0.93;;;;;;;;;;10461529;28;20060;-70
2022/01/09 15:57:17;;;;;;;2.27;0.67;;;;;;;;;;10461470;28;20416;-70
2022/01/09 16:02:20;;;;;;;1.83;0.60;;;;;;;;;;10447400;28;20041;-69
2022/01/09 16:07:23;;;;;;;3.67;0.90;;;;;;;;;;10458893;28;20067;-70
2022/01/09 16:12:27;;;;;;;0.40;0.40;;;;;;;;;;10463836;28;20127;-67
2022/01/09 16:17:30;;;;;;;;;;;;;;;;;;10444500;28;20169;-68
2022/01/09 16:22:33;;;;;;;1.13;0.60;;;;;;;;;;10466635;28;20203;-70
2022/01/09 16:27:37;;;;;;;4.03;0.80;;;;;;;;;;10444677;28;20051;-69
2022/01/09 16:32:40;;;;;;;;;;;;;;;;;;10450707;28;20314;-70
2022/01/09 16:37:43;;;;;;;0.47;0.37;;;;;;;;;;10464610;28;19920;-69
2022/01/09 16:42:47;;;;;;;4.50;0.83;;;;;;;;;;10456715;22;20320;-76
2022/01/09 16:47:50;;;;;;;0.90;0.70;;;;;;;;;;10451047;28;20498;-78
2022/01/09 16:52:53;;;;;;;2.13;0.70;;;;;;;;;;10444533;28;20381;-76
2022/01/09 16:57:58;;;;;;;4.87;1.77;;;;;;;;;;10444646;28;20734;-78
2022/01/09 17:03:00;;;;;;;2.10;1.80;;;;;;;;;;10441636;28;20425;-78
2022/01/09 17:08:04;;;;;;;4.30;1.37;;;;;;;;;;10443690;28;20048;-76
2022/01/09 17:13:08;;;;;;;3.00;1.20;;;;;;;;;;10445774;28;20094;-77
2022/01/09 17:18:11;;;;;;;3.53;1.30;;;;;;;;;;10444614;28;20049;-75
2022/01/09 17:23:14;;;;;;;3.10;1.07;;;;;;;;;;10447152;28;20102;-78
2022/01/09 17:28:18;;;;;;;0.90;0.50;;;;;;;;;;10442053;28;20257;-77
2022/01/09 17:33:22;;;;;;;2.37;1.03;;;;;;;;;;10446683;28;20040;-76
2022/01/09 17:38:24;;;;;;;5.10;2.03;;;;;;;;;;10442866;28;20037;-75
2022/01/09 17:43:29;;;;;;;1.20;0.80;;;;;;;;;;10441108;28;20457;-79
2022/01/09 17:48:33;;;;;;;1.00;0.90;;;;;;;;;;10436680;28;20060;-77
2022/01/09 17:53:36;;;;;;;1.02;0.63;;;;;;;;;;10432443;28;20074;-76
2022/01/09 17:58:40;;;;;;;0.77;0.60;;;;;;;;;;10445919;28;20079;-78
2022/01/09 18:03:43;;;;;;;;;;;;;;;;;;10439507;28;20053;-79
2022/01/09 18:08:46;;;;;;;3.50;1.43;;;;;;;;;;10454143;28;19921;-76
2022/01/09 18:13:50;;;;;;;2.70;1.57;;;;;;;;;;10430759;28;20592;-78
2022/01/09 18:18:54;;;;;;;3.80;1.27;;;;;;;;;;10449420;28;20372;-78
2022/01/09 18:23:57;;;;;;;2.00;1.00;;;;;;;;;;10443809;28;20037;-77
2022/01/09 18:29:02;;;;;;;2.37;1.37;;;;;;;;;;10459180;28;20052;-77
2022/01/09 18:34:04;;;;;;;7.93;1.80;;;;;;;;;;10481914;28;20097;-80
2022/01/09 18:39:09;;;;;;;2.03;0.80;;;;;;;;;;10470735;28;20029;-77
2022/01/09 18:44:13;;;;;;;3.80;1.17;;;;;;;;;;10463894;28;20037;-77
2022/01/09 18:49:18;;;;;;;2.20;0.90;;;;;;;;;;10463318;28;20033;-77
2022/01/09 18:54:21;;;;;;;5.63;1.23;;;;;;;;;;10455991;28;20037;-78
2022/01/09 18:59:25;;;;;;;3.17;1.77;;;;;;;;;;10456635;28;20053;-78
2022/01/09 19:04:28;;;;;;;3.33;1.27;;;;;;;;;;10457108;28;20048;-75
2022/01/09 19:09:31;;;;;;;1.10;0.70;;;;;;;;;;10452865;28;20044;-78
2022/01/09 19:14:35;;;;;;;4.13;0.93;;;;;;;;;;10447712;28;20041;-76
2022/01/09 19:19:38;;;;;;;;;;;;;;;;;;10473557;28;20071;-76
2022/01/09 19:24:41;;;;;;;2.43;1.00;;;;;;;;;;10450070;28;19935;-78
2022/01/09 19:29:47;;;;;;;1.85;1.02;;;;;;;;;;10441198;28;20043;-77
2022/01/09 19:34:50;;;;;;;2.80;1.13;;;;;;;;;;10447530;28;20047;-77
2022/01/09 19:39:53;;;;;;;0.77;0.70;;;;;;;;;;10442789;28;20513;-78
2022/01/09 19:44:57;;;;;;;2.93;1.00;;;;;;;;;;10436768;28;20037;-74
2022/01/09 19:50:00;;;;;;;0.97;0.70;;;;;;;;;;10443053;28;20037;-75
2022/01/09 19:55:03;;;;;;;3.43;1.17;;;;;;;;;;10434153;28;20059;-77
2022/01/09 20:00:09;;;;;;;3.90;1.30;;;;;;;;;;10442185;28;20037;-77
2022/01/09 20:05:13;;;;;;;1.70;0.90;;;;;;;;;;10457612;28;20493;-76
2022/01/09 20:10:16;;;;;;;2.95;1.45;;;;;;;;;;10441823;28;20120;-76
2022/01/09 20:15:22;;;;;;;1.23;0.93;;;;;;;;;;10454852;28;20045;-76
2022/01/09 20:20:25;;;;;;;4.30;1.60;;;;;;;;;;10444711;28;20547;-77
2022/01/09 20:25:28;;;;;;;3.85;1.63;;;;;;;;;;10443445;28;20531;-77
2022/01/09 20:30:32;;;;;;;2.90;1.50;;;;;;;;;;10446990;28;20568;-76
2022/01/09 20:35:35;;;;;;;1.50;0.70;;;;;;;;;;10446235;28;20041;-75
2022/01/09 20:40:38;;;;;;;2.50;1.37;;;;;;;;;;10458785;28;20040;-77
2022/01/09 20:45:43;;;;;;;2.27;1.33;;;;;;;;;;10442683;28;20442;-76
2022/01/09 20:50:46;;;;;;;2.00;1.20;;;;;;;;;;10444001;28;20095;-77
2022/01/09 20:55:49;;;;;;;2.83;1.00;;;;;;;;;;10442723;28;20048;-76
2022/01/09 21:00:53;;;;;;;2.13;1.33;;;;;;;;;;10447511;28;20303;-76
2022/01/09 21:05:57;;;;;;;1.60;0.93;;;;;;;;;;10442983;28;20079;-75
2022/01/09 21:11:01;;;;;;;1.10;1.00;;;;;;;;;;10442545;28;20454;-76
2022/01/09 21:16:06;;;;;;;2.77;1.30;;;;;;;;;;10442252;28;20044;-79
2022/01/09 21:21:09;;;;;;;4.33;2.37;;;;;;;;;;10449430;28;20032;-77
2022/01/09 21:26:14;;;;;;;3.83;1.63;;;;;;;;;;10447829;28;20135;-76
2022/01/09 21:31:18;;;;;;;2.07;1.23;;;;;;;;;;10443808;28;20400;-78
2022/01/09 21:36:21;;;;;;;2.13;1.00;;;;;;;;;;10440154;28;20589;-76
2022/01/09 21:41:45;;;;;;;1.87;1.37;;;;;;;;;;10441605;28;20049;-76
2022/01/09 21:46:49;;;;;;;0.80;0.80;;;;;;;;;;10466346;28;20063;-76
2022/01/09 21:51:52;;;;;;;1.37;0.63;;;;;;;;;;10444177;28;20037;-75
2022/01/09 21:56:55;;;;;;;6.67;1.50;;;;;;;;;;10442689;28;20033;-77
2022/01/09 22:01:59;;;;;;;1.87;1.10;;;;;;;;;;10441936;28;20037;-77
2022/01/09 22:07:03;;;;;;;1.70;1.10;;;;;;;;;;10444951;28;20133;-76
2022/01/09 22:12:06;;;;;;;2.70;0.97;;;;;;;;;;10435512;28;20037;-76
2022/01/09 22:17:12;;;;;;;2.20;0.90;;;;;;;;;;10433134;28;20099;-76
2022/01/09 22:22:15;;;;;;;5.17;1.83;;;;;;;;;;10438180;28;20033;-77
2022/01/09 22:27:18;;;;;;;4.57;1.43;;;;;;;;;;10435239;28;20091;-76
2022/01/09 22:32:22;;;;;;;1.70;1.13;;;;;;;;;;10445882;28;20037;-76
2022/01/09 22:37:26;;;;;;;4.40;2.03;;;;;;;;;;10449205;28;20036;-76
2022/01/09 22:42:30;;;;;;;2.13;1.35;;;;;;;;;;10447335;22;20042;-81
2022/01/09 22:47:34;;;;;;;4.63;1.17;;;;;;;;;;10426885;28;20029;-83
2022/01/09 22:52:37;;;;;;;2.33;1.30;;;;;;;;;;10437131;28;20029;-86
2022/01/09 22:57:41;;;;;;;2.50;1.83;;;;;;;;;;10432259;28;20052;-82
2022/01/09 23:02:46;;;;;;;3.03;1.73;;;;;;;;;;10428334;28;20048;-81
2022/01/09 23:07:50;;;;;;;3.33;1.70;;;;;;;;;;10413365;28;20033;-82
2022/01/09 23:12:53;;;;;;;2.83;1.13;;;;;;;;;;10430139;28;21390;-83
2022/01/09 23:17:57;;;;;;;3.60;1.80;;;;;;;;;;10413968;28;20026;-83
2022/01/09 23:23:00;;;;;;;3.73;2.00;;;;;;;;;;10435070;28;20136;-84
2022/01/09 23:28:06;;;;;;;1.73;0.90;;;;;;;;;;10419321;28;20036;-84
2022/01/09 23:33:10;;;;;;;5.40;1.70;;;;;;;;;;10432719;28;20038;-81
2022/01/09 23:38:15;;;;;;;7.87;1.80;;;;;;;;;;10424506;28;20034;-81
2022/01/09 23:43:21;;;;;;;2.83;1.10;;;;;;;;;;10425612;28;20043;-80
2022/01/09 23:50:23;;;;;;;3.85;2.00;;;;;;;;;;10411746;28;20108;-81
2022/01/09 23:53:51;;;;;;;7.17;2.23;;;;;;;;;;10436136;28;20048;-82
2022/01/09 23:58:57;;;;;;;4.30;2.10;;;;;;;;;;10433271;28;20026;-81
